sensor_id;sensor_type;location;lat;lon;timestamp;temperature;humidity
32839;DHT22;19182;41.820;12.808;2023-04-25T00:00:03;12.10;99.90
32839;DHT22;19182;41.820;12.808;2023-04-25T00:02:32;12.00;99.90
32839;DHT22;19182;41.820;12.808;2023-04-25T00:05:02;12.00;99.90
32839;DHT22;19182;41.820;12.808;2023-04-25T00:07:28;12.00;99.90
32839;DHT22;19182;41.820;12.808;2023-04-25T00:09:54;12.00;99.90
32839;DHT22;19182;41.820;12.808;2023-04-25T00:12:20;12.00;99.90
32839;DHT22;19182;41.820;12.808;2023-04-25T00:14:48;12.00;99.90
32839;DHT22;19182;41.820;12.808;2023-04-25T00:17:15;12.00;99.90
32839;DHT22;19182;41.820;12.808;2023-04-25T00:19:45;12.00;99.90
32839;DHT22;19182;41.820;12.808;2023-04-25T00:22:13;11.90;99.90
32839;DHT22;19182;41.820;12.808;2023-04-25T00:24:40;11.90;99.90
32839;DHT22;19182;41.820;12.808;2023-04-25T00:27:06;11.90;99.90
32839;DHT22;19182;41.820;12.808;2023-04-25T00:29:33;11.70;99.90
32839;DHT22;19182;41.820;12.808;2023-04-25T00:32:00;11.60;99.90
32839;DHT22;19182;41.820;12.808;2023-04-25T00:34:25;11.50;99.90
32839;DHT22;19182;41.820;12.808;2023-04-25T00:36:52;11.30;99.90
32839;DHT22;19182;41.820;12.808;2023-04-25T00:39:19;11.30;99.90
32839;DHT22;19182;41.820;12.808;2023-04-25T00:41:46;11.20;99.90
32839;DHT22;19182;41.820;12.808;2023-04-25T00:44:12;11.00;99.90
32839;DHT22;19182;41.820;12.808;2023-04-25T00:46:39;11.00;99.90
32839;DHT22;19182;41.820;12.808;2023-04-25T00:49:06;10.90;99.90
32839;DHT22;19182;41.820;12.808;2023-04-25T00:51:32;10.90;99.90
32839;DHT22;19182;41.820;12.808;2023-04-25T00:53:58;10.80;99.90
32839;DHT22;19182;41.820;12.808;2023-04-25T00:56:26;10.80;99.90
32839;DHT22;19182;41.820;12.808;2023-04-25T00:58:54;10.80;99.90
32839;DHT22;19182;41.820;12.808;2023-04-25T01:01:22;10.80;99.90
32839;DHT22;19182;41.820;12.808;2023-04-25T01:03:50;10.70;99.90
32839;DHT22;19182;41.820;12.808;2023-04-25T01:06:16;10.70;99.90
32839;DHT22;19182;41.820;12.808;2023-04-25T01:08:44;10.70;99.90
32839;DHT22;19182;41.820;12.808;2023-04-25T01:11:09;10.70;99.90
32839;DHT22;19182;41.820;12.808;2023-04-25T01:13:35;10.70;99.90
32839;DHT22;19182;41.820;12.808;2023-04-25T01:16:02;10.60;99.90
32839;DHT22;19182;41.820;12.808;2023-04-25T01:18:28;10.60;99.90
32839;DHT22;19182;41.820;12.808;2023-04-25T01:20:54;10.60;99.90
32839;DHT22;19182;41.820;12.808;2023-04-25T01:23:21;10.40;99.90
32839;DHT22;19182;41.820;12.808;2023-04-25T01:25:48;10.40;99.90
32839;DHT22;19182;41.820;12.808;2023-04-25T01:28:16;10.40;99.90
32839;DHT22;19182;41.820;12.808;2023-04-25T01:30:44;10.30;99.90
32839;DHT22;19182;41.820;12.808;2023-04-25T01:33:12;10.30;99.90
32839;DHT22;19182;41.820;12.808;2023-04-25T01:35:39;10.20;99.90
32839;DHT22;19182;41.820;12.808;2023-04-25T01:38:05;10.20;99.90
32839;DHT22;19182;41.820;12.808;2023-04-25T01:40:31;10.30;99.90
32839;DHT22;19182;41.820;12.808;2023-04-25T01:42:58;10.30;99.90
32839;DHT22;19182;41.820;12.808;2023-04-25T01:45:25;10.40;99.90
32839;DHT22;19182;41.820;12.808;2023-04-25T01:47:50;10.50;99.90
32839;DHT22;19182;41.820;12.808;2023-04-25T01:50:19;10.50;99.90
32839;DHT22;19182;41.820;12.808;2023-04-25T01:52:45;10.40;99.90
32839;DHT22;19182;41.820;12.808;2023-04-25T01:55:10;10.40;99.90
32839;DHT22;19182;41.820;12.808;2023-04-25T01:57:36;10.50;99.90
32839;DHT22;19182;41.820;12.808;2023-04-25T02:00:04;10.50;99.90
32839;DHT22;19182;41.820;12.808;2023-04-25T02:02:31;10.70;99.90
32839;DHT22;19182;41.820;12.808;2023-04-25T02:04:58;10.60;99.90
32839;DHT22;19182;41.820;12.808;2023-04-25T02:07:25;10.60;99.90
32839;DHT22;19182;41.820;12.808;2023-04-25T02:09:52;10.60;99.90
32839;DHT22;19182;41.820;12.808;2023-04-25T02:12:18;10.70;99.90
32839;DHT22;19182;41.820;12.808;2023-04-25T02:14:45;10.70;99.90
32839;DHT22;19182;41.820;12.808;2023-04-25T02:17:12;10.70;99.90
32839;DHT22;19182;41.820;12.808;2023-04-25T02:19:38;10.60;99.90
32839;DHT22;19182;41.820;12.808;2023-04-25T02:22:05;10.70;99.90
32839;DHT22;19182;41.820;12.808;2023-04-25T02:24:30;10.60;99.90
32839;DHT22;19182;41.820;12.808;2023-04-25T02:26:58;10.70;99.90
32839;DHT22;19182;41.820;12.808;2023-04-25T02:29:26;10.60;99.90
32839;DHT22;19182;41.820;12.808;2023-04-25T02:31:52;10.50;99.90
32839;DHT22;19182;41.820;12.808;2023-04-25T02:34:18;10.50;99.90
32839;DHT22;19182;41.820;12.808;2023-04-25T02:36:45;10.50;99.90
32839;DHT22;19182;41.820;12.808;2023-04-25T02:39:11;10.40;99.90
32839;DHT22;19182;41.820;12.808;2023-04-25T02:41:37;10.40;99.90
32839;DHT22;19182;41.820;12.808;2023-04-25T02:44:04;10.30;99.90
32839;DHT22;19182;41.820;12.808;2023-04-25T02:46:29;10.40;99.90
32839;DHT22;19182;41.820;12.808;2023-04-25T02:48:56;10.40;99.90
32839;DHT22;19182;41.820;12.808;2023-04-25T02:51:22;10.50;99.90
32839;DHT22;19182;41.820;12.808;2023-04-25T02:53:48;10.60;99.90
32839;DHT22;19182;41.820;12.808;2023-04-25T02:56:14;10.80;99.90
32839;DHT22;19182;41.820;12.808;2023-04-25T02:58:42;10.90;99.90
32839;DHT22;19182;41.820;12.808;2023-04-25T03:01:07;10.90;99.90
32839;DHT22;19182;41.820;12.808;2023-04-25T03:03:33;11.00;99.90
32839;DHT22;19182;41.820;12.808;2023-04-25T03:05:59;11.00;99.90
32839;DHT22;19182;41.820;12.808;2023-04-25T03:08:24;11.10;99.90
32839;DHT22;19182;41.820;12.808;2023-04-25T03:10:51;11.00;99.90
32839;DHT22;19182;41.820;12.808;2023-04-25T03:13:18;11.00;99.90
32839;DHT22;19182;41.820;12.808;2023-04-25T03:15:45;11.00;99.90
32839;DHT22;19182;41.820;12.808;2023-04-25T03:18:11;11.00;99.90
32839;DHT22;19182;41.820;12.808;2023-04-25T03:20:38;10.90;99.90
32839;DHT22;19182;41.820;12.808;2023-04-25T03:23:06;10.90;99.90
32839;DHT22;19182;41.820;12.808;2023-04-25T03:25:31;10.90;99.90
32839;DHT22;19182;41.820;12.808;2023-04-25T03:27:57;10.90;99.90
32839;DHT22;19182;41.820;12.808;2023-04-25T03:30:22;10.90;99.90
32839;DHT22;19182;41.820;12.808;2023-04-25T03:32:49;10.90;99.90
32839;DHT22;19182;41.820;12.808;2023-04-25T03:35:15;10.80;99.90
32839;DHT22;19182;41.820;12.808;2023-04-25T03:37:42;10.70;99.90
32839;DHT22;19182;41.820;12.808;2023-04-25T03:40:12;10.70;99.90
32839;DHT22;19182;41.820;12.808;2023-04-25T03:42:39;10.70;99.90
32839;DHT22;19182;41.820;12.808;2023-04-25T03:45:06;10.70;99.90
32839;DHT22;19182;41.820;12.808;2023-04-25T03:47:32;10.70;99.90
32839;DHT22;19182;41.820;12.808;2023-04-25T03:49:58;10.70;99.90
32839;DHT22;19182;41.820;12.808;2023-04-25T03:52:25;10.80;99.90
32839;DHT22;19182;41.820;12.808;2023-04-25T03:54:51;10.70;99.90
32839;DHT22;19182;41.820;12.808;2023-04-25T03:57:18;10.60;99.90
32839;DHT22;19182;41.820;12.808;2023-04-25T03:59:43;10.70;99.90
32839;DHT22;19182;41.820;12.808;2023-04-25T04:02:10;10.70;99.90
32839;DHT22;19182;41.820;12.808;2023-04-25T04:04:37;10.60;99.90
32839;DHT22;19182;41.820;12.808;2023-04-25T04:07:02;10.70;99.90
32839;DHT22;19182;41.820;12.808;2023-04-25T04:09:29;10.70;99.90
32839;DHT22;19182;41.820;12.808;2023-04-25T04:11:56;10.70;99.90
32839;DHT22;19182;41.820;12.808;2023-04-25T04:14:23;10.70;99.90
32839;DHT22;19182;41.820;12.808;2023-04-25T04:16:52;10.80;99.90
32839;DHT22;19182;41.820;12.808;2023-04-25T04:19:19;10.70;99.90
32839;DHT22;19182;41.820;12.808;2023-04-25T04:21:44;10.80;99.90
32839;DHT22;19182;41.820;12.808;2023-04-25T04:24:10;10.80;99.90
32839;DHT22;19182;41.820;12.808;2023-04-25T04:26:36;11.00;99.90
32839;DHT22;19182;41.820;12.808;2023-04-25T04:29:02;11.00;99.90
32839;DHT22;19182;41.820;12.808;2023-04-25T04:31:28;11.00;99.90
32839;DHT22;19182;41.820;12.808;2023-04-25T04:33:55;11.00;99.90
32839;DHT22;19182;41.820;12.808;2023-04-25T04:36:22;11.00;99.90
32839;DHT22;19182;41.820;12.808;2023-04-25T04:38:50;11.10;99.90
32839;DHT22;19182;41.820;12.808;2023-04-25T04:41:15;11.10;99.90
32839;DHT22;19182;41.820;12.808;2023-04-25T04:43:41;11.10;99.90
32839;DHT22;19182;41.820;12.808;2023-04-25T04:46:07;11.20;99.90
32839;DHT22;19182;41.820;12.808;2023-04-25T04:48:33;11.20;99.90
32839;DHT22;19182;41.820;12.808;2023-04-25T04:50:59;11.30;99.90
32839;DHT22;19182;41.820;12.808;2023-04-25T04:53:25;11.30;99.90
32839;DHT22;19182;41.820;12.808;2023-04-25T04:55:52;11.30;99.90
32839;DHT22;19182;41.820;12.808;2023-04-25T04:58:19;11.40;99.90
32839;DHT22;19182;41.820;12.808;2023-04-25T05:00:45;11.60;99.90
32839;DHT22;19182;41.820;12.808;2023-04-25T05:03:10;11.60;99.90
32839;DHT22;19182;41.820;12.808;2023-04-25T05:05:38;11.60;99.90
32839;DHT22;19182;41.820;12.808;2023-04-25T05:08:07;11.50;99.90
32839;DHT22;19182;41.820;12.808;2023-04-25T05:10:34;11.50;99.90
32839;DHT22;19182;41.820;12.808;2023-04-25T05:13:00;11.50;99.90
32839;DHT22;19182;41.820;12.808;2023-04-25T05:15:26;11.50;99.90
32839;DHT22;19182;41.820;12.808;2023-04-25T05:17:52;11.50;99.90
32839;DHT22;19182;41.820;12.808;2023-04-25T05:20:19;11.50;99.90
32839;DHT22;19182;41.820;12.808;2023-04-25T05:22:46;11.50;99.90
32839;DHT22;19182;41.820;12.808;2023-04-25T05:25:13;11.50;99.90
32839;DHT22;19182;41.820;12.808;2023-04-25T05:27:39;11.50;99.90
32839;DHT22;19182;41.820;12.808;2023-04-25T05:30:05;11.60;99.90
32839;DHT22;19182;41.820;12.808;2023-04-25T05:32:31;11.60;99.90
32839;DHT22;19182;41.820;12.808;2023-04-25T05:34:58;11.60;99.90
32839;DHT22;19182;41.820;12.808;2023-04-25T05:37:24;11.50;99.90
32839;DHT22;19182;41.820;12.808;2023-04-25T05:39:51;10.70;99.90
32839;DHT22;19182;41.820;12.808;2023-04-25T05:42:17;11.50;99.90
32839;DHT22;19182;41.820;12.808;2023-04-25T05:44:42;11.60;99.90
32839;DHT22;19182;41.820;12.808;2023-04-25T05:47:08;11.60;99.90
32839;DHT22;19182;41.820;12.808;2023-04-25T05:49:35;11.50;99.90
32839;DHT22;19182;41.820;12.808;2023-04-25T05:52:01;11.50;99.90
32839;DHT22;19182;41.820;12.808;2023-04-25T05:54:28;11.60;99.90
32839;DHT22;19182;41.820;12.808;2023-04-25T05:56:55;11.80;99.90
32839;DHT22;19182;41.820;12.808;2023-04-25T05:59:22;11.90;99.90
32839;DHT22;19182;41.820;12.808;2023-04-25T06:01:49;12.00;99.90
32839;DHT22;19182;41.820;12.808;2023-04-25T06:04:15;12.20;99.90
32839;DHT22;19182;41.820;12.808;2023-04-25T06:06:42;12.40;99.90
32839;DHT22;19182;41.820;12.808;2023-04-25T06:09:08;12.40;99.90
32839;DHT22;19182;41.820;12.808;2023-04-25T06:11:33;12.50;99.90
32839;DHT22;19182;41.820;12.808;2023-04-25T06:14:00;12.40;99.90
32839;DHT22;19182;41.820;12.808;2023-04-25T06:16:27;12.50;99.90
32839;DHT22;19182;41.820;12.808;2023-04-25T06:18:54;12.60;99.90
32839;DHT22;19182;41.820;12.808;2023-04-25T06:21:21;12.80;99.90
32839;DHT22;19182;41.820;12.808;2023-04-25T06:23:46;12.90;99.90
32839;DHT22;19182;41.820;12.808;2023-04-25T06:26:12;13.20;99.90
32839;DHT22;19182;41.820;12.808;2023-04-25T06:28:38;13.80;99.90
32839;DHT22;19182;41.820;12.808;2023-04-25T06:31:05;14.50;99.90
32839;DHT22;19182;41.820;12.808;2023-04-25T06:33:31;14.70;99.90
32839;DHT22;19182;41.820;12.808;2023-04-25T06:35:57;15.00;99.90
32839;DHT22;19182;41.820;12.808;2023-04-25T06:38:24;15.30;99.90
32839;DHT22;19182;41.820;12.808;2023-04-25T06:40:50;15.60;99.90
32839;DHT22;19182;41.820;12.808;2023-04-25T06:43:16;15.70;99.90
32839;DHT22;19182;41.820;12.808;2023-04-25T06:48:13;15.90;99.90
32839;DHT22;19182;41.820;12.808;2023-04-25T06:50:40;16.30;99.90
32839;DHT22;19182;41.820;12.808;2023-04-25T06:53:06;15.60;99.90
32839;DHT22;19182;41.820;12.808;2023-04-25T06:55:34;15.40;99.90
32839;DHT22;19182;41.820;12.808;2023-04-25T06:58:00;15.10;99.90
32839;DHT22;19182;41.820;12.808;2023-04-25T07:00:26;14.50;99.90
32839;DHT22;19182;41.820;12.808;2023-04-25T07:02:51;14.60;99.90
32839;DHT22;19182;41.820;12.808;2023-04-25T07:05:18;17.40;99.90
32839;DHT22;19182;41.820;12.808;2023-04-25T07:07:45;15.40;99.90
32839;DHT22;19182;41.820;12.808;2023-04-25T07:10:13;15.90;99.90
32839;DHT22;19182;41.820;12.808;2023-04-25T07:12:40;16.00;99.90
32839;DHT22;19182;41.820;12.808;2023-04-25T07:15:06;16.10;99.90
32839;DHT22;19182;41.820;12.808;2023-04-25T07:17:35;16.10;99.90
32839;DHT22;19182;41.820;12.808;2023-04-25T07:20:02;15.90;99.90
32839;DHT22;19182;41.820;12.808;2023-04-25T07:22:30;15.90;99.90
32839;DHT22;19182;41.820;12.808;2023-04-25T07:24:57;16.10;99.90
32839;DHT22;19182;41.820;12.808;2023-04-25T07:27:23;15.80;99.90
32839;DHT22;19182;41.820;12.808;2023-04-25T07:29:49;15.80;99.90
32839;DHT22;19182;41.820;12.808;2023-04-25T07:32:17;16.00;99.90
32839;DHT22;19182;41.820;12.808;2023-04-25T07:34:42;16.10;99.90
32839;DHT22;19182;41.820;12.808;2023-04-25T07:37:08;16.20;99.90
32839;DHT22;19182;41.820;12.808;2023-04-25T07:39:34;16.00;99.90
32839;DHT22;19182;41.820;12.808;2023-04-25T07:42:00;15.70;99.90
32839;DHT22;19182;41.820;12.808;2023-04-25T07:44:27;15.80;99.90
32839;DHT22;19182;41.820;12.808;2023-04-25T07:46:54;15.40;99.90
32839;DHT22;19182;41.820;12.808;2023-04-25T07:49:20;15.20;99.90
32839;DHT22;19182;41.820;12.808;2023-04-25T07:51:46;15.20;99.90
32839;DHT22;19182;41.820;12.808;2023-04-25T07:54:14;15.30;99.90
32839;DHT22;19182;41.820;12.808;2023-04-25T07:56:40;15.40;99.90
32839;DHT22;19182;41.820;12.808;2023-04-25T07:59:07;15.50;99.90
32839;DHT22;19182;41.820;12.808;2023-04-25T08:01:34;15.40;99.90
32839;DHT22;19182;41.820;12.808;2023-04-25T08:03:59;15.40;99.90
32839;DHT22;19182;41.820;12.808;2023-04-25T08:06:25;15.30;99.90
32839;DHT22;19182;41.820;12.808;2023-04-25T08:08:51;15.50;99.90
32839;DHT22;19182;41.820;12.808;2023-04-25T08:11:18;15.60;99.90
32839;DHT22;19182;41.820;12.808;2023-04-25T08:13:44;15.90;99.90
32839;DHT22;19182;41.820;12.808;2023-04-25T08:16:11;16.30;99.90
32839;DHT22;19182;41.820;12.808;2023-04-25T08:18:37;16.60;99.90
32839;DHT22;19182;41.820;12.808;2023-04-25T08:21:02;16.80;99.90
32839;DHT22;19182;41.820;12.808;2023-04-25T08:23:30;17.10;99.90
32839;DHT22;19182;41.820;12.808;2023-04-25T08:25:57;17.50;99.90
32839;DHT22;19182;41.820;12.808;2023-04-25T08:28:24;17.90;99.90
32839;DHT22;19182;41.820;12.808;2023-04-25T08:30:50;18.20;99.90
32839;DHT22;19182;41.820;12.808;2023-04-25T08:33:15;18.10;99.90
32839;DHT22;19182;41.820;12.808;2023-04-25T08:35:41;18.20;99.90
32839;DHT22;19182;41.820;12.808;2023-04-25T08:38:07;18.70;99.90
32839;DHT22;19182;41.820;12.808;2023-04-25T08:40:37;18.80;99.90
32839;DHT22;19182;41.820;12.808;2023-04-25T08:43:03;19.10;99.90
32839;DHT22;19182;41.820;12.808;2023-04-25T08:45:35;19.20;99.90
32839;DHT22;19182;41.820;12.808;2023-04-25T08:48:02;18.90;99.90
32839;DHT22;19182;41.820;12.808;2023-04-25T08:50:29;19.10;99.90
32839;DHT22;19182;41.820;12.808;2023-04-25T08:52:58;19.30;99.90
32839;DHT22;19182;41.820;12.808;2023-04-25T08:55:27;19.20;99.90
32839;DHT22;19182;41.820;12.808;2023-04-25T08:57:56;19.10;99.90
32839;DHT22;19182;41.820;12.808;2023-04-25T09:00:23;19.30;99.90
32839;DHT22;19182;41.820;12.808;2023-04-25T09:02:49;19.50;99.90
32839;DHT22;19182;41.820;12.808;2023-04-25T09:05:14;19.40;99.90
32839;DHT22;19182;41.820;12.808;2023-04-25T09:07:40;19.30;99.90
32839;DHT22;19182;41.820;12.808;2023-04-25T09:10:06;19.10;99.90
32839;DHT22;19182;41.820;12.808;2023-04-25T09:12:32;19.30;99.90
32839;DHT22;19182;41.820;12.808;2023-04-25T09:15:04;19.50;99.90
32839;DHT22;19182;41.820;12.808;2023-04-25T09:17:30;19.60;99.90
32839;DHT22;19182;41.820;12.808;2023-04-25T09:20:12;19.90;99.90
32839;DHT22;19182;41.820;12.808;2023-04-25T09:22:38;19.90;99.90
32839;DHT22;19182;41.820;12.808;2023-04-25T09:25:13;20.30;99.90
32839;DHT22;19182;41.820;12.808;2023-04-25T09:27:54;20.30;99.90
32839;DHT22;19182;41.820;12.808;2023-04-25T09:30:31;20.30;99.90
32839;DHT22;19182;41.820;12.808;2023-04-25T09:33:03;20.90;99.90
32839;DHT22;19182;41.820;12.808;2023-04-25T09:35:30;20.80;99.90
32839;DHT22;19182;41.820;12.808;2023-04-25T09:38:01;20.30;99.90
32839;DHT22;19182;41.820;12.808;2023-04-25T09:40:32;20.50;99.90
32839;DHT22;19182;41.820;12.808;2023-04-25T09:42:58;20.10;99.90
32839;DHT22;19182;41.820;12.808;2023-04-25T09:45:24;19.80;99.90
32839;DHT22;19182;41.820;12.808;2023-04-25T09:47:55;19.70;99.90
32839;DHT22;19182;41.820;12.808;2023-04-25T09:50:21;19.10;99.90
32839;DHT22;19182;41.820;12.808;2023-04-25T09:53:03;18.90;99.90
32839;DHT22;19182;41.820;12.808;2023-04-25T09:55:32;19.00;99.90
32839;DHT22;19182;41.820;12.808;2023-04-25T09:58:03;19.10;99.90
32839;DHT22;19182;41.820;12.808;2023-04-25T10:00:31;19.10;99.90
32839;DHT22;19182;41.820;12.808;2023-04-25T10:03:01;19.00;99.90
32839;DHT22;19182;41.820;12.808;2023-04-25T10:05:32;18.90;99.90
32839;DHT22;19182;41.820;12.808;2023-04-25T10:08:00;19.10;99.90
32839;DHT22;19182;41.820;12.808;2023-04-25T10:10:28;19.20;99.90
32839;DHT22;19182;41.820;12.808;2023-04-25T10:13:00;19.80;99.90
32839;DHT22;19182;41.820;12.808;2023-04-25T10:15:27;20.40;99.90
32839;DHT22;19182;41.820;12.808;2023-04-25T10:17:52;20.60;99.90
32839;DHT22;19182;41.820;12.808;2023-04-25T10:20:20;20.90;99.90
32839;DHT22;19182;41.820;12.808;2023-04-25T10:22:46;21.30;99.90
32839;DHT22;19182;41.820;12.808;2023-04-25T10:25:14;21.50;99.90
32839;DHT22;19182;41.820;12.808;2023-04-25T10:27:40;21.70;99.90
32839;DHT22;19182;41.820;12.808;2023-04-25T10:30:15;21.50;99.90
32839;DHT22;19182;41.820;12.808;2023-04-25T10:32:43;21.20;99.90
32839;DHT22;19182;41.820;12.808;2023-04-25T10:35:19;21.30;99.90
32839;DHT22;19182;41.820;12.808;2023-04-25T10:38:08;21.40;99.90
32839;DHT22;19182;41.820;12.808;2023-04-25T10:40:34;21.40;99.90
32839;DHT22;19182;41.820;12.808;2023-04-25T10:45:59;21.60;99.90
32839;DHT22;19182;41.820;12.808;2023-04-25T10:48:30;22.60;99.90
32839;DHT22;19182;41.820;12.808;2023-04-25T10:51:09;23.60;99.90
32839;DHT22;19182;41.820;12.808;2023-04-25T10:53:35;23.80;99.90
32839;DHT22;19182;41.820;12.808;2023-04-25T10:56:11;23.40;99.90
32839;DHT22;19182;41.820;12.808;2023-04-25T10:58:45;22.90;99.90
32839;DHT22;19182;41.820;12.808;2023-04-25T11:01:13;22.90;99.90
32839;DHT22;19182;41.820;12.808;2023-04-25T11:03:44;22.90;99.90
32839;DHT22;19182;41.820;12.808;2023-04-25T11:06:22;22.70;99.90
32839;DHT22;19182;41.820;12.808;2023-04-25T11:08:50;22.80;99.90
32839;DHT22;19182;41.820;12.808;2023-04-25T11:11:17;23.40;99.90
32839;DHT22;19182;41.820;12.808;2023-04-25T11:13:43;23.60;99.90
32839;DHT22;19182;41.820;12.808;2023-04-25T11:16:09;23.50;99.90
32839;DHT22;19182;41.820;12.808;2023-04-25T11:18:35;23.90;99.90
32839;DHT22;19182;41.820;12.808;2023-04-25T11:21:02;24.40;99.90
32839;DHT22;19182;41.820;12.808;2023-04-25T11:23:29;25.10;99.90
32839;DHT22;19182;41.820;12.808;2023-04-25T11:25:57;25.80;99.90
32839;DHT22;19182;41.820;12.808;2023-04-25T11:28:23;26.30;99.90
32839;DHT22;19182;41.820;12.808;2023-04-25T11:30:49;26.40;99.90
32839;DHT22;19182;41.820;12.808;2023-04-25T11:33:18;25.70;99.90
32839;DHT22;19182;41.820;12.808;2023-04-25T11:35:48;25.00;99.90
32839;DHT22;19182;41.820;12.808;2023-04-25T11:38:14;24.00;99.90
32839;DHT22;19182;41.820;12.808;2023-04-25T11:40:41;22.50;99.90
32839;DHT22;19182;41.820;12.808;2023-04-25T11:43:09;22.30;99.90
32839;DHT22;19182;41.820;12.808;2023-04-25T11:45:36;22.60;99.90
32839;DHT22;19182;41.820;12.808;2023-04-25T11:48:02;22.80;99.90
32839;DHT22;19182;41.820;12.808;2023-04-25T11:50:30;23.00;99.90
32839;DHT22;19182;41.820;12.808;2023-04-25T11:52:58;23.60;99.90
32839;DHT22;19182;41.820;12.808;2023-04-25T11:55:23;24.40;99.90
32839;DHT22;19182;41.820;12.808;2023-04-25T11:57:49;24.50;99.90
32839;DHT22;19182;41.820;12.808;2023-04-25T12:00:18;24.30;99.90
32839;DHT22;19182;41.820;12.808;2023-04-25T12:02:47;24.30;98.50
32839;DHT22;19182;41.820;12.808;2023-04-25T12:05:17;24.20;96.60
32839;DHT22;19182;41.820;12.808;2023-04-25T12:07:43;24.20;98.10
32839;DHT22;19182;41.820;12.808;2023-04-25T12:10:14;24.30;96.70
32839;DHT22;19182;41.820;12.808;2023-04-25T12:12:45;24.50;95.50
32839;DHT22;19182;41.820;12.808;2023-04-25T12:15:24;24.80;98.00
32839;DHT22;19182;41.820;12.808;2023-04-25T12:17:52;25.00;96.50
32839;DHT22;19182;41.820;12.808;2023-04-25T12:20:24;25.40;96.60
32839;DHT22;19182;41.820;12.808;2023-04-25T12:22:51;25.90;96.10
32839;DHT22;19182;41.820;12.808;2023-04-25T12:28:15;26.90;92.50
32839;DHT22;19182;41.820;12.808;2023-04-25T12:31:05;27.10;92.70
32839;DHT22;19182;41.820;12.808;2023-04-25T12:33:35;27.20;91.40
32839;DHT22;19182;41.820;12.808;2023-04-25T12:36:03;27.10;82.70
32839;DHT22;19182;41.820;12.808;2023-04-25T12:38:41;26.50;87.10
32839;DHT22;19182;41.820;12.808;2023-04-25T12:41:07;26.70;89.40
32839;DHT22;19182;41.820;12.808;2023-04-25T12:43:35;26.80;88.80
32839;DHT22;19182;41.820;12.808;2023-04-25T12:46:01;27.00;82.90
32839;DHT22;19182;41.820;12.808;2023-04-25T12:48:28;27.00;77.70
32839;DHT22;19182;41.820;12.808;2023-04-25T12:50:55;27.00;77.90
32839;DHT22;19182;41.820;12.808;2023-04-25T12:53:22;27.00;80.00
32839;DHT22;19182;41.820;12.808;2023-04-25T12:55:50;26.90;82.70
32839;DHT22;19182;41.820;12.808;2023-04-25T12:58:18;26.80;82.50
32839;DHT22;19182;41.820;12.808;2023-04-25T13:00:46;26.60;82.80
32839;DHT22;19182;41.820;12.808;2023-04-25T13:03:11;26.20;79.70
32839;DHT22;19182;41.820;12.808;2023-04-25T13:05:38;25.80;82.30
32839;DHT22;19182;41.820;12.808;2023-04-25T13:08:04;25.80;84.80
32839;DHT22;19182;41.820;12.808;2023-04-25T13:10:31;25.80;88.40
32839;DHT22;19182;41.820;12.808;2023-04-25T13:12:56;25.80;84.30
32839;DHT22;19182;41.820;12.808;2023-04-25T13:15:22;25.70;89.10
32839;DHT22;19182;41.820;12.808;2023-04-25T13:17:48;25.70;84.10
32839;DHT22;19182;41.820;12.808;2023-04-25T13:20:14;25.30;85.80
32839;DHT22;19182;41.820;12.808;2023-04-25T13:22:41;25.20;86.20
32839;DHT22;19182;41.820;12.808;2023-04-25T13:25:09;25.30;87.60
32839;DHT22;19182;41.820;12.808;2023-04-25T13:27:36;25.30;86.60
32839;DHT22;19182;41.820;12.808;2023-04-25T13:30:04;25.40;85.50
32839;DHT22;19182;41.820;12.808;2023-04-25T13:32:38;25.20;87.60
32839;DHT22;19182;41.820;12.808;2023-04-25T13:35:07;25.20;85.80
32839;DHT22;19182;41.820;12.808;2023-04-25T13:37:34;25.10;89.90
32839;DHT22;19182;41.820;12.808;2023-04-25T13:40:03;24.80;86.10
32839;DHT22;19182;41.820;12.808;2023-04-25T13:42:30;24.70;88.20
32839;DHT22;19182;41.820;12.808;2023-04-25T13:44:57;24.60;90.30
32839;DHT22;19182;41.820;12.808;2023-04-25T13:47:23;24.60;89.10
32839;DHT22;19182;41.820;12.808;2023-04-25T13:49:50;24.50;91.70
32839;DHT22;19182;41.820;12.808;2023-04-25T13:52:17;24.20;87.30
32839;DHT22;19182;41.820;12.808;2023-04-25T13:54:42;24.20;92.10
32839;DHT22;19182;41.820;12.808;2023-04-25T13:57:09;24.10;93.20
32839;DHT22;19182;41.820;12.808;2023-04-25T13:59:37;24.00;92.30
32839;DHT22;19182;41.820;12.808;2023-04-25T14:02:02;23.90;93.70
32839;DHT22;19182;41.820;12.808;2023-04-25T14:04:29;23.80;94.60
32839;DHT22;19182;41.820;12.808;2023-04-25T14:06:55;23.70;95.20
32839;DHT22;19182;41.820;12.808;2023-04-25T14:09:23;23.70;94.00
32839;DHT22;19182;41.820;12.808;2023-04-25T14:11:54;23.70;94.50
32839;DHT22;19182;41.820;12.808;2023-04-25T14:14:21;23.60;94.10
32839;DHT22;19182;41.820;12.808;2023-04-25T14:16:48;23.50;94.00
32839;DHT22;19182;41.820;12.808;2023-04-25T14:19:16;23.40;95.00
32839;DHT22;19182;41.820;12.808;2023-04-25T14:21:42;23.40;94.30
32839;DHT22;19182;41.820;12.808;2023-04-25T14:24:10;23.40;94.10
32839;DHT22;19182;41.820;12.808;2023-04-25T14:26:39;23.30;94.00
32839;DHT22;19182;41.820;12.808;2023-04-25T14:29:06;23.00;94.50
32839;DHT22;19182;41.820;12.808;2023-04-25T14:31:33;23.00;95.20
32839;DHT22;19182;41.820;12.808;2023-04-25T14:33:59;22.80;95.90
32839;DHT22;19182;41.820;12.808;2023-04-25T14:36:25;22.80;97.20
32839;DHT22;19182;41.820;12.808;2023-04-25T14:38:53;22.90;97.80
32839;DHT22;19182;41.820;12.808;2023-04-25T14:41:18;22.90;98.90
32839;DHT22;19182;41.820;12.808;2023-04-25T14:43:45;22.80;98.00
32839;DHT22;19182;41.820;12.808;2023-04-25T14:46:12;22.90;97.20
32839;DHT22;19182;41.820;12.808;2023-04-25T14:48:38;22.80;97.50
32839;DHT22;19182;41.820;12.808;2023-04-25T14:51:04;22.70;97.30
32839;DHT22;19182;41.820;12.808;2023-04-25T14:53:31;22.50;98.70
32839;DHT22;19182;41.820;12.808;2023-04-25T14:55:57;22.50;99.10
32839;DHT22;19182;41.820;12.808;2023-04-25T14:58:22;22.50;99.50
32839;DHT22;19182;41.820;12.808;2023-04-25T15:00:48;22.40;99.70
32839;DHT22;19182;41.820;12.808;2023-04-25T15:03:14;22.20;99.90
32839;DHT22;19182;41.820;12.808;2023-04-25T15:05:41;23.90;99.90
32839;DHT22;19182;41.820;12.808;2023-04-25T15:08:07;22.20;99.90
32839;DHT22;19182;41.820;12.808;2023-04-25T15:10:34;22.00;99.90
32839;DHT22;19182;41.820;12.808;2023-04-25T15:13:01;21.90;99.90
32839;DHT22;19182;41.820;12.808;2023-04-25T15:15:27;21.90;99.90
32839;DHT22;19182;41.820;12.808;2023-04-25T15:17:54;21.80;99.90
32839;DHT22;19182;41.820;12.808;2023-04-25T15:20:22;21.80;99.90
32839;DHT22;19182;41.820;12.808;2023-04-25T15:22:48;21.60;99.90